Latest Coastal Weather Observations for Darwin Airport

IDD60701

Issued at 9:05 pm CST Friday 31 October 2014 (issued every 10 minutes, with the page automatically refreshed every 10 minutes)

About coastal observations | Map of coastal stations | Coastal observations for NT | Marine services | Other Formats
Station Details ID: 014015 Name: DARWIN AIRPORT Lat: -12.42 Lon: 130.89 Height: 30.4 m
Data from the previous 72 hours. | See also: Recent months at Darwin Airport
Date/Time
CST
Temp

°C
Wind Pressure Rain
since 9am
mm
Weather Cloud Vis
km
Sea
Height
m
Swell
Dir
 
Speed
knots
Gust
knots
hPa Trend Height
m
Period
s
Dir
31/09:00pm 28.3 WNW 9 13 1009.2 F 0.0 Smoke Clear 30 - - - -
31/08:30pm 28.5 WNW 9 11 1009.3 - 0.0 - - 10 - - - -
31/08:00pm 28.6 NW 10 13 1009.1 - 0.0 - - 10 - - - -
31/07:30pm 28.8 NW 10 11 1008.9 - 0.0 - - 10 - - - -
31/07:00pm 29.0 NW 10 13 1008.5 - 0.0 - - 10 - - - -
31/06:30pm 29.4 NW 11 15 1008.3 - 0.0 - - 10 - - - -
31/06:00pm 30.2 NW 14 16 1007.6 F 0.0 Fine Clear 30 - - - -
31/05:30pm 30.8 NW 13 17 1007.6 - 0.0 - - 10 - - - -
31/05:00pm 31.2 NW 14 17 1007.5 - 0.0 - - 10 - - - -
31/04:30pm 32.6 NW 13 16 1007.6 - 0.0 - - 10 - - - -
31/04:00pm 32.9 NW 11 14 1007.7 - 0.0 - - 10 - - - -
31/03:30pm 33.7 NW 9 12 1007.9 - 0.0 - - 10 - - - -
31/03:00pm 33.7 NW 9 14 1007.9 R 0.0 Fine Mostly clear 30 - - - -
31/02:30pm 33.4 NW 9 14 1008.5 - 0.0 - - 10 - - - -
31/02:00pm 33.5 WNW 11 14 1008.9 - 0.0 - - 10 - - - -
31/01:30pm 32.8 WNW 11 15 1009.3 - 0.0 - - 10 - - - -
31/01:00pm 32.3 WNW 12 17 1009.7 - 0.0 - - 10 - - - -
31/12:30pm 31.8 NNW 11 14 1010.3 - 0.0 - - 10 - - - -
31/12:00pm 31.4 N 9 16 1010.4 R 0.0 Fine Mostly clear 30 - - - -
31/11:30am 30.6 N 9 13 1011.1 - 0.0 - Mostly clear 10 - - - -
31/11:00am 31.3 N 9 16 1011.4 - 0.0 - Mostly clear 10 - - - -
31/10:30am 30.2 NNW 9 15 1011.5 - 0.0 - Mostly clear 10 - - - -
31/10:00am 30.1 N 9 14 1011.6 - 0.0 - - 10 - - - -
31/09:30am 29.7 N 9 13 1011.7 - 0.0 - Mostly clear 10 - - - -
31/09:00am 29.4 N 7 10 1011.4 R 0.0 Fine Mostly clear 30 - - - -
31/08:30am 28.7 NNE 6 8 1011.5 - 0.0 - - 10 - - - -
31/08:00am 28.0 NE 6 9 1011.3 - 0.0 - - 10 - - - -
31/07:30am 26.7 ENE 5 6 1011.0 - 0.0 - - 10 - - - -
31/07:00am 24.4 ENE 5 5 1010.5 - 0.0 - - 10 - - - -
31/06:30am 22.9 NE 4 4 1010.0 - 0.0 - - 10 - - - -
31/06:00am 23.0 CALM 0 0 1009.5 R 0.0 Smoke Mostly clear 20 - - - -
31/05:30am 23.4 CALM 0 0 1009.5 - 0.0 - - 10 - - - -
31/05:00am 23.4 CALM 0 0 1009.2 - 0.0 - - 10 - - - -
31/04:30am 23.7 CALM 0 0 1009.0 - 0.0 - - 10 - - - -
31/04:00am 23.8 CALM 0 0 1008.7 - 0.0 - Mostly clear 10 - - - -
31/03:30am 24.1 CALM 0 0 1008.5 - 0.0 - Mostly clear 10 - - - -
31/03:00am 24.5 N 4 4 1008.3 F 0.0 Fine Mostly clear 25 - - - -
31/02:30am 24.8 NNW 5 5 1008.7 - 0.0 - Mostly clear 10 - - - -
31/02:00am 25.5 NNW 6 8 1009.0 - 0.0 - Mostly clear 10 - - - -
31/01:30am 26.5 NNW 5 7 1009.2 - 0.0 - Mostly clear 10 - - - -
31/01:00am 27.4 NW 7 9 1009.2 - 0.0 - Mostly clear 10 - - - -
31/12:30am 27.4 NW 6 7 1009.5 - 0.0 - Mostly clear 10 - - - -
31/12:00am 27.6 WNW 8 9 1009.4 S 0.0 Fine Mostly clear 25 - - - -
 
Date/Time
CST
Temp

°C
Wind Pressure Rain
since 9am
mm
Weather Cloud Vis
km
Sea
Height
m
Swell
Dir
 
Speed
knots
Gust
knots
hPa Trend Height
m
Period
s
Dir
30/11:30pm 27.8 WNW 8 10 1009.8 - 0.0 - Mostly clear 10 - - - -
30/11:00pm 28.0 WNW 11 14 1009.8 - 0.0 - Mostly clear 10 - - - -
30/10:30pm 28.1 WNW 9 11 1009.7 - 0.0 - Mostly clear 10 - - - -
30/10:00pm 28.3 WNW 9 11 1009.7 - 0.0 - Mostly clear 10 - - - -
30/09:30pm 28.3 NW 9 10 1009.3 - 0.0 - - 10 - - - -
30/09:00pm 28.3 NNW 8 10 1008.7 F 0.0 Fine Clear 30 - - - -
30/08:30pm 28.3 NNW 8 9 1008.7 - 0.0 - - 10 - - - -
30/08:00pm 28.6 NW 11 14 1008.5 - 0.0 - - 10 - - - -
30/07:30pm 28.7 NNW 9 12 1008.4 - 0.0 - - 10 - - - -
30/07:00pm 29.0 NNW 10 13 1008.1 - 0.0 - - 10 - - - -
30/06:30pm 29.8 N 12 16 1007.9 - 0.0 - - 10 - - - -
30/06:00pm 30.6 N 14 16 1007.4 F 0.0 Smoke Clear 30 - - - -
30/05:30pm 32.8 N 12 16 1007.6 - 0.0 - Mostly clear 10 - - - -
30/05:00pm 33.7 N 12 17 1007.6 - 0.0 - - 10 - - - -
30/04:30pm 34.2 N 15 17 1007.5 - 0.0 - Mostly clear 10 - - - -
30/04:00pm 34.3 NNW 13 18 1007.8 - 0.0 - Mostly clear 10 - - - -
30/03:30pm 34.7 NNW 13 16 1008.0 - 0.0 - Mostly clear 10 - - - -
30/03:00pm 33.8 NW 13 17 1007.9 R 0.0 Smoke Mostly clear 25 - - - -
30/02:30pm 32.7 NW 11 17 1008.4 - 0.0 - Mostly clear 10 - - - -
30/02:00pm 32.7 N 9 14 1008.7 - 0.0 - Mostly clear 10 - - - -
30/01:30pm 31.4 NW 10 15 1009.3 - 0.0 - Mostly clear 10 - - - -
30/01:00pm 31.1 NNW 11 16 1009.8 - 0.0 - Mostly clear 10 - - - -
30/12:30pm 31.2 NNW 11 16 1010.2 - 0.0 - Mostly clear 10 - - - -
30/12:00pm 31.1 N 12 16 1010.3 F 0.0 Fine Mostly clear 30 - - - -
30/11:30am 31.5 NNW 12 15 1011.0 - 0.0 - Mostly clear 10 - - - -
30/11:00am 30.2 NNW 9 14 1011.2 - 0.0 - Partly cloudy 10 - - - -
30/10:30am 30.2 N 9 14 1011.5 - 0.0 - Partly cloudy 10 - - - -
30/10:00am 29.9 NNW 7 9 1011.7 - 0.0 - Partly cloudy 10 - - - -
30/09:30am 29.7 N 9 11 1011.8 - 0.0 - Mostly clear 10 - - - -
30/09:00am 28.5 N 8 10 1011.6 F 0.0 Fine Mostly clear 30 - - - -
30/08:30am 28.1 NNE 8 11 1011.9 - 0.0 - Partly cloudy 10 - - - -
30/08:00am 27.8 NE 7 9 1011.7 - 0.0 - Mostly clear 10 - - - -
30/07:30am 26.5 E 5 6 1011.4 - 0.0 - Mostly clear 10 - - - -
30/07:00am 25.0 NE 4 5 1010.9 - 0.0 - Mostly clear 10 - - - -
30/06:30am 23.7 E 4 5 1010.7 - 0.0 - Mostly clear 10 - - - -
30/06:00am 23.9 ENE 4 5 1010.0 F 0.0 Fine Mostly clear 25 - - - -
30/05:30am 23.8 NE 3 4 1009.9 - 0.0 - - 10 - - - -
30/05:00am 23.7 NE 4 4 1009.6 - 0.0 - - 10 - - - -
30/04:30am 23.9 CALM 0 0 1009.5 - 0.0 - - 10 - - - -
30/04:00am 24.0 NNE 3 4 1009.4 - 0.0 - - 10 - - - -
30/03:30am 24.8 CALM 0 0 1009.5 - 0.0 - - 10 - - - -
30/03:00am 24.8 ENE 4 4 1009.6 F 0.0 Haze Clear 20 - - - -
30/02:30am 25.2 ENE 3 4 1010.2 - 0.0 - - 10 - - - -
30/02:00am 25.7 ENE 4 5 1010.5 - 0.0 - - 10 - - - -
30/01:30am 26.0 NNW 3 4 1010.8 - 0.0 - Mostly clear 10 - - - -
30/01:00am 27.0 NW 5 5 1010.8 - 0.0 - Mostly clear 10 - - - -
30/12:30am 27.4 WNW 5 6 1011.0 - 0.0 - - 10 - - - -
30/12:00am 28.0 NW 4 5 1011.1 S 0.0 Fine Mostly clear 30 - - - -
 
Date/Time
CST
Temp

°C
Wind Pressure Rain
since 9am
mm
Weather Cloud Vis
km
Sea
Height
m
Swell
Dir
 
Speed
knots
Gust
knots
hPa Trend Height
m
Period
s
Dir
29/11:30pm 28.3 NNW 8 10 1011.5 - 0.0 - Mostly clear 10 - - - -
29/11:00pm 28.5 WNW 9 11 1011.5 - 0.0 - Partly cloudy 10 - - - -
29/10:30pm 28.8 WNW 8 11 1011.5 - 0.0 - Partly cloudy 10 - - - -
29/10:00pm 28.5 WNW 8 10 1011.2 - 0.0 - Mostly clear 10 - - - -
29/09:30pm 28.2 W 7 9 1010.8 - 0.0 - - 10 - - - -
29/09:00pm 28.4 W 8 10 1010.4 F 0.0 Fine Clear 30 - - - -
29/08:30pm 28.0 SSW 3 4 1010.2 - 0.0 - - 10 - - - -
29/08:00pm 29.0 SW 4 5 1009.9 - 0.0 - - 10 - - - -
29/07:30pm 29.6 W 5 6 1009.7 - 0.0 - - 10 - - - -
29/07:00pm 30.4 NNW 5 6 1009.5 - 0.0 - - 10 - - - -
29/06:30pm 30.5 N 7 10 1009.3 - 0.0 - - 10 - - - -
29/06:00pm 30.7 NNW 9 12 1008.7 F 0.0 Smoke Mostly clear 30 - - - -
29/05:30pm 30.7 N 12 15 1008.7 - 0.0 - - 10 - - - -
29/05:00pm 31.0 N 13 16 1008.5 - 0.0 - - 10 - - - -
29/04:30pm 31.6 N 14 18 1008.5 - 0.0 - Mostly clear 10 - - - -
29/04:00pm 32.2 N 12 18 1008.7 - 0.0 - Mostly clear 10 - - - -
29/03:30pm 31.8 N 13 16 1009.0 - 0.0 - Mostly clear 10 - - - -
29/03:00pm 31.9 N 11 15 1009.0 R 0.0 Haze Mostly clear 30 - - - -
29/02:30pm 32.6 N 12 14 1009.5 - 0.0 - Mostly clear 10 - - - -
29/02:00pm 32.4 N 14 17 1009.8 - 0.0 - Mostly clear 10 - - - -
29/01:30pm 31.9 N 14 17 1010.4 - 0.0 - Mostly clear 10 - - - -
29/01:00pm 31.7 NNW 13 17 1010.9 - 0.0 - Mostly clear 10 - - - -
29/12:30pm 31.8 NW 11 14 1011.6 - 0.0 - Mostly clear 10 - - - -
29/12:00pm 31.7 NW 11 14 1011.6 S 0.0 Haze Mostly clear 30 - - - -
29/11:30am 32.5 NW 10 13 1012.2 - 0.0 - Mostly clear 10 - - - -
29/11:00am 31.5 SW 10 14 1012.7 - 0.0 - Mostly clear 10 - - - -
29/10:30am 31.4 SSE 5 9 1013.1 - 0.0 - Partly cloudy 10 - - - -
29/10:00am 30.5 NE 6 9 1013.4 - 0.0 - Partly cloudy 10 - - - -
29/09:30am 29.8 NE 8 12 1013.5 - 0.0 - Partly cloudy 10 - - - -
29/09:00am 29.0 NNE 6 9 1012.8 F 0.0 Fine Mostly clear 25 - - - -
29/08:30am 28.7 NE 6 7 1012.8 - 0.0 - Partly cloudy 10 - - - -
29/08:00am 28.3 NE 5 6 1012.8 - 0.0 - Partly cloudy 10 - - - -
29/07:30am 27.1 ENE 5 6 1012.6 - 0.0 - Mostly clear 10 - - - -
29/07:00am 25.4 ENE 5 6 1012.2 - 0.0 - Mostly clear 10 - - - -
29/06:30am 23.9 NE 5 6 1012.1 - 0.0 - Mostly clear 10 - - - -
29/06:00am 23.9 NE 5 6 1011.3 R 0.0 Haze Mostly clear 20 - - - -
29/05:30am 24.1 NNE 5 6 1011.3 - 0.0 - Mostly clear 10 - - - -
29/05:00am 24.5 NNE 6 7 1011.1 - 0.0 - Mostly clear 10 - - - -
29/04:30am 24.5 NNE 5 6 1010.9 - 0.0 - - 10 - - - -
29/04:00am 24.6 N 5 6 1010.7 - 0.0 - - 10 - - - -
29/03:30am 24.7 N 5 5 1010.5 - 0.0 - - 10 - - - -
29/03:00am 24.8 NNE 5 6 1010.4 R 0.0 Fine Clear 30 - - - -
29/02:30am 25.3 N 5 6 1010.8 - 0.0 - - 10 - - - -
29/02:00am 25.7 N 5 5 1011.1 - 0.0 - - 10 - - - -
29/01:30am 25.9 N 5 6 1011.4 - 0.0 - - 10 - - - -
29/01:00am 26.7 N 5 6 1011.4 - 0.0 - Mostly clear 10 - - - -
29/12:30am 27.5 N 5 6 1011.5 - 0.0 - Mostly clear 10 - - - -
29/12:00am 28.1 NW 7 8 1011.2 R 0.0 Fine Mostly clear 30 - - - -
 
Date/Time
CST
Temp

°C
Wind Pressure Rain
since 9am
mm
Weather Cloud Vis
km
Sea
Height
m
Swell
Dir
 
Speed
knots
Gust
knots
hPa Trend Height
m
Period
s
Dir
28/11:30pm 28.1 WNW 8 10 1011.5 - 0.0 - Mostly clear 10 - - - -
28/11:00pm 28.1 WNW 9 11 1011.5 - 0.0 - Partly cloudy 10 - - - -
28/10:30pm 28.2 WNW 11 15 1011.0 - 0.0 - Partly cloudy 10 - - - -
28/10:00pm 28.5 WNW 11 14 1010.8 - 0.0 - Mostly clear 10 - - - -
28/09:30pm 28.7 NW 12 14 1010.6 - 0.0 - - 10 - - - -

Other Formats:

Comma delimited format used in spreadsheet applications
http://www.bom.gov.au/fwo/IDD60701/IDD60701.94120.axf

JavaScript Object Notation format (JSON) in row-major order
http://www.bom.gov.au/fwo/IDD60701/IDD60701.94120.json